Time;durP1;ratioP1;P1;durP2;ratioP2;P2;SDS_P1;SDS_P2;PMS_P1;PMS_P2;Temp;Humidity;BMP_temperature;BMP_pressure;BME280_temperature;BME280_humidity;BME280_pressure;Samples;Min_cycle;Max_cycle;Signal;HPM_P1;HPM_P2
2021/10/02 00:35:35;;;;;;;5.28;0.88;;;21.80;58.10;;;;;;4996648;28;20046;-64
2021/10/02 00:38:11;;;;;;;4.30;1.00;;;21.70;58.20;;;;;;4992294;28;20038;-62
2021/10/02 00:46:07;;;;;;;3.53;0.80;;;21.70;58.20;;;;;;4995015;28;20049;-64
2021/10/02 00:48:35;;;;;;;5.00;0.80;;;21.70;58.10;;;;;;4995134;28;20037;-63
2021/10/02 00:51:01;;;;;;;6.68;0.93;;;21.70;58.30;;;;;;4994128;28;20042;-64
2021/10/02 00:53:27;;;;;;;3.67;0.80;;;21.70;58.20;;;;;;4993204;28;20120;-64
2021/10/02 00:55:54;;;;;;;4.20;0.82;;;21.70;58.20;;;;;;4995281;28;20050;-64
2021/10/02 00:58:20;;;;;;;4.38;0.85;;;21.70;58.10;;;;;;4996142;28;20050;-64
2021/10/02 01:00:48;;;;;;;3.28;0.65;;;21.80;58.40;;;;;;5000228;28;20034;-64
2021/10/02 01:03:38;;;;;;;5.30;0.90;;;21.70;58.70;;;;;;5000302;28;20571;-64
2021/10/02 01:06:29;;;;;;;6.35;0.82;;;21.70;58.20;;;;;;4999480;28;20045;-64
2021/10/02 01:09:04;;;;;;;4.07;0.73;;;21.70;58.90;;;;;;4998396;28;20046;-64
2021/10/02 01:11:35;;;;;;;;;;;21.70;58.10;;;;;;4998797;28;20100;-64
2021/10/02 01:14:27;;;;;;;5.35;1.08;;;21.70;58.20;;;;;;4999954;28;19925;-64
2021/10/02 01:16:56;;;;;;;3.25;0.75;;;21.70;58.30;;;;;;4999052;28;20049;-63
2021/10/02 01:19:46;;;;;;;4.13;0.93;;;21.70;58.30;;;;;;4998129;28;20042;-64
2021/10/02 01:22:49;;;;;;;4.78;1.05;;;21.70;58.30;;;;;;4997160;28;20530;-63
2021/10/02 01:25:33;;;;;;;4.65;0.80;;;21.70;58.10;;;;;;4997783;28;20046;-64
2021/10/02 01:28:16;;;;;;;2.30;0.55;;;21.70;58.00;;;;;;5000169;28;20130;-64
2021/10/02 01:36:44;;;;;;;6.05;1.00;;;21.70;58.00;;;;;;5011538;28;20618;-65
2021/10/02 01:47:48;;;;;;;6.53;0.90;;;21.70;58.30;;;;;;4997993;28;20129;-64
2021/10/02 01:50:18;;;;;;;6.55;0.60;;;21.70;58.30;;;;;;4995214;28;20053;-63
2021/10/02 01:52:45;;;;;;;6.53;0.90;;;21.70;58.30;;;;;;4995842;28;20117;-64
2021/10/02 01:55:13;;;;;;;3.60;0.77;;;21.70;58.30;;;;;;4996603;28;20050;-64
2021/10/02 01:57:46;;;;;;;4.38;1.02;;;21.70;58.30;;;;;;4997085;28;20073;-64
2021/10/02 02:00:13;;;;;;;4.53;0.80;;;21.70;58.40;;;;;;4998722;28;20068;-64
2021/10/02 02:02:46;;;;;;;2.83;0.75;;;21.70;58.30;;;;;;4996858;28;20103;-65
2021/10/02 02:05:13;;;;;;;2.97;0.63;;;21.70;58.40;;;;;;4996394;28;20187;-64
2021/10/02 02:07:45;;;;;;;6.63;0.98;;;21.70;58.40;;;;;;5010520;28;20046;-64
2021/10/02 02:10:12;;;;;;;1.67;0.55;;;21.70;58.40;;;;;;4998193;28;20054;-64
2021/10/02 02:12:40;;;;;;;4.75;0.70;;;21.70;58.40;;;;;;4995227;28;20042;-63
2021/10/02 02:15:08;;;;;;;3.13;0.80;;;21.70;58.40;;;;;;4996551;28;20053;-64
2021/10/02 02:17:43;;;;;;;5.20;0.70;;;21.70;58.40;;;;;;4995174;28;20139;-64
2021/10/02 02:20:11;;;;;;;3.65;0.80;;;21.70;58.40;;;;;;4997006;28;20125;-64
2021/10/02 02:22:37;;;;;;;4.47;0.80;;;21.70;58.20;;;;;;4998287;28;20591;-63
2021/10/02 02:25:05;;;;;;;5.18;0.80;;;21.70;58.30;;;;;;4995201;28;20467;-64
2021/10/02 02:27:31;;;;;;;2.47;0.70;;;21.70;58.40;;;;;;4996899;28;20065;-63
2021/10/02 02:29:57;;;;;;;3.70;0.80;;;21.70;58.40;;;;;;4996870;28;20037;-65
2021/10/02 02:32:23;;;;;;;3.15;0.73;;;21.70;58.30;;;;;;4994325;28;20699;-65
2021/10/02 02:34:49;;;;;;;4.00;0.68;;;21.70;58.40;;;;;;4996282;28;20069;-65
2021/10/02 02:37:15;;;;;;;5.85;0.80;;;21.70;58.30;;;;;;4996994;28;20098;-63
2021/10/02 02:39:41;;;;;;;3.60;0.77;;;21.70;58.30;;;;;;4998209;28;20084;-64
2021/10/02 02:42:08;;;;;;;2.30;0.77;;;21.70;58.90;;;;;;4995472;28;20042;-64
2021/10/02 02:44:33;;;;;;;3.38;0.60;;;21.70;58.30;;;;;;4997595;28;20046;-64
2021/10/02 02:47:06;;;;;;;2.08;0.65;;;21.70;58.90;;;;;;4994233;28;20129;-64
2021/10/02 02:49:54;;;;;;;5.78;0.70;;;21.70;58.20;;;;;;4994229;28;20046;-63
2021/10/02 02:52:19;;;;;;;4.75;0.85;;;21.70;58.30;;;;;;4996546;28;20057;-63
2021/10/02 02:54:52;;;;;;;3.33;0.60;;;21.70;58.40;;;;;;4996193;28;20042;-64
2021/10/02 02:57:20;;;;;;;3.17;0.80;;;21.70;58.30;;;;;;4995777;28;20050;-65
2021/10/02 02:59:59;;;;;;;3.13;0.70;;;21.70;58.50;;;;;;4996005;28;20045;-64
2021/10/02 03:02:25;;;;;;;3.72;0.80;;;21.70;58.40;;;;;;4994334;28;20081;-64
2021/10/02 03:04:53;;;;;;;3.40;0.68;;;21.70;58.40;;;;;;4995341;28;20030;-64
2021/10/02 03:07:21;;;;;;;6.47;0.90;;;21.70;58.40;;;;;;4997227;28;20072;-64
2021/10/02 03:09:51;;;;;;;5.10;0.70;;;21.70;58.50;;;;;;4994410;28;20038;-64
2021/10/02 03:12:19;;;;;;;2.55;0.43;;;21.70;58.30;;;;;;4994693;28;20038;-64
2021/10/02 03:14:49;;;;;;;2.20;0.60;;;21.70;58.30;;;;;;4996725;28;20049;-64
2021/10/02 03:17:16;;;;;;;2.97;0.75;;;21.70;58.40;;;;;;4994671;28;20060;-65
2021/10/02 03:19:43;;;;;;;2.78;0.60;;;21.70;58.40;;;;;;4996050;28;20411;-64
2021/10/02 03:22:09;;;;;;;1.95;0.55;;;21.70;58.40;;;;;;4997234;28;20496;-65
2021/10/02 03:24:37;;;;;;;3.38;0.60;;;21.70;58.50;;;;;;5002108;28;20046;-64
2021/10/02 03:27:07;;;;;;;3.92;0.88;;;21.70;58.40;;;;;;4994862;28;20038;-65
2021/10/02 03:29:36;;;;;;;5.63;0.85;;;21.70;58.30;;;;;;4995794;28;20066;-64
2021/10/02 03:32:06;;;;;;;5.22;0.70;;;21.60;58.00;;;;;;4994432;28;20064;-64
2021/10/02 03:34:33;;;;;;;2.30;0.70;;;21.70;58.10;;;;;;5009674;28;20508;-64
2021/10/02 03:36:59;;;;;;;4.18;0.65;;;21.60;57.90;;;;;;4995863;28;20062;-64
2021/10/02 03:39:25;;;;;;;2.63;0.70;;;21.70;58.00;;;;;;4995893;28;20045;-64
2021/10/02 03:42:07;;;;;;;3.63;0.85;;;21.60;57.80;;;;;;4996613;28;20057;-64
2021/10/02 03:44:33;;;;;;;3.65;0.82;;;21.70;57.90;;;;;;4994096;28;20129;-64
2021/10/02 03:46:58;;;;;;;5.03;0.70;;;21.60;57.70;;;;;;4993831;28;20137;-65
2021/10/02 03:49:24;;;;;;;5.25;0.80;;;21.60;57.80;;;;;;4994895;28;20161;-64
2021/10/02 03:51:50;;;;;;;2.63;0.70;;;21.60;57.70;;;;;;4994582;28;20077;-64
2021/10/02 03:54:15;;;;;;;2.13;0.60;;;21.60;57.60;;;;;;4993181;28;20038;-64
2021/10/02 03:56:41;;;;;;;3.25;0.70;;;21.60;57.60;;;;;;4994939;28;20042;-64
2021/10/02 03:59:07;;;;;;;2.72;0.88;;;21.70;57.80;;;;;;4995782;28;20426;-64
2021/10/02 04:01:32;;;;;;;3.25;0.85;;;21.60;57.60;;;;;;4993712;28;20812;-64
2021/10/02 04:03:58;;;;;;;2.30;0.57;;;21.70;57.80;;;;;;4994097;28;20037;-63
2021/10/02 04:06:24;;;;;;;2.45;0.68;;;21.70;57.80;;;;;;4995053;28;20038;-65
2021/10/02 04:08:49;;;;;;;1.58;0.52;;;21.60;57.50;;;;;;4995751;28;20230;-64
2021/10/02 04:11:15;;;;;;;2.22;0.60;;;21.60;57.50;;;;;;4994631;28;20396;-64
2021/10/02 04:13:41;;;;;;;2.58;0.73;;;21.70;57.80;;;;;;4995334;28;20053;-64
2021/10/02 04:16:06;;;;;;;5.38;0.90;;;21.60;57.50;;;;;;4994351;28;20073;-63
2021/10/02 04:18:33;;;;;;;3.30;0.90;;;21.60;57.50;;;;;;5010130;28;20034;-63
2021/10/02 04:20:59;;;;;;;4.40;1.13;;;21.60;57.50;;;;;;4995681;28;20119;-64
2021/10/02 04:23:25;;;;;;;3.03;0.60;;;21.60;57.50;;;;;;4993292;28;20053;-64
2021/10/02 04:25:51;;;;;;;2.83;0.65;;;21.60;57.50;;;;;;4995309;28;20038;-64
2021/10/02 04:28:16;;;;;;;2.55;0.80;;;21.60;57.50;;;;;;4993416;28;20045;-64
2021/10/02 04:30:43;;;;;;;3.30;0.73;;;21.60;57.50;;;;;;4993726;28;20519;-64
2021/10/02 04:33:09;;;;;;;3.38;0.70;;;21.60;57.50;;;;;;4995103;28;20049;-62
2021/10/02 04:35:34;;;;;;;1.90;0.50;;;21.60;57.50;;;;;;4993598;28;20435;-64
2021/10/02 04:38:00;;;;;;;3.67;0.70;;;21.60;57.50;;;;;;4994803;28;20045;-64
2021/10/02 04:40:26;;;;;;;3.45;0.80;;;21.70;57.60;;;;;;4996832;28;20039;-65
2021/10/02 04:42:52;;;;;;;2.90;0.80;;;21.60;57.50;;;;;;4995780;28;20026;-64
2021/10/02 04:45:18;;;;;;;2.40;0.70;;;21.60;57.50;;;;;;4995025;28;20049;-64
2021/10/02 04:47:48;;;;;;;3.10;0.70;;;21.60;57.50;;;;;;4995017;28;20046;-64
2021/10/02 04:50:14;;;;;;;2.45;0.70;;;21.60;57.60;;;;;;4993576;28;20046;-64
2021/10/02 04:52:40;;;;;;;4.10;0.90;;;21.60;57.60;;;;;;4996096;28;20049;-64
2021/10/02 04:55:10;;;;;;;3.35;0.73;;;21.60;57.60;;;;;;4994880;28;20554;-64
2021/10/02 04:57:36;;;;;;;2.25;0.55;;;21.60;57.70;;;;;;4996039;28;20832;-64
2021/10/02 05:00:04;;;;;;;1.98;0.65;;;21.60;57.60;;;;;;4997898;28;20040;-64
2021/10/02 05:02:29;;;;;;;3.25;0.60;;;21.60;57.60;;;;;;4995704;28;20046;-65
2021/10/02 05:04:55;;;;;;;7.32;0.90;;;21.60;57.70;;;;;;4995965;28;20100;-64
2021/10/02 05:07:21;;;;;;;5.10;0.93;;;21.60;57.50;;;;;;4999444;28;20184;-63
2021/10/02 05:09:46;;;;;;;3.95;0.70;;;21.60;57.60;;;;;;4997641;28;20088;-64
2021/10/02 05:12:12;;;;;;;8.02;0.90;;;21.70;57.90;;;;;;4995656;28;20112;-64
2021/10/02 05:14:38;;;;;;;5.15;0.80;;;21.60;57.90;;;;;;4994474;28;20045;-64
2021/10/02 05:17:10;;;;;;;5.38;0.80;;;21.70;57.90;;;;;;4997009;28;20050;-63
2021/10/02 05:19:37;;;;;;;4.90;0.80;;;21.70;57.80;;;;;;4995164;28;20049;-64
2021/10/02 05:22:03;;;;;;;3.55;0.63;;;21.70;57.90;;;;;;4996023;28;20062;-64
2021/10/02 05:24:29;;;;;;;6.45;0.93;;;21.70;57.90;;;;;;4995432;28;20407;-63
2021/10/02 05:26:54;;;;;;;3.70;0.90;;;21.70;57.90;;;;;;4997076;28;20082;-63
2021/10/02 05:29:20;;;;;;;3.42;0.80;;;21.70;58.00;;;;;;4997136;28;20161;-64
2021/10/02 05:31:46;;;;;;;5.78;0.80;;;21.70;58.00;;;;;;4996425;28;20038;-63
2021/10/02 05:34:11;;;;;;;6.18;0.80;;;21.70;58.00;;;;;;4996916;28;20037;-64
2021/10/02 05:36:37;;;;;;;6.38;0.80;;;21.70;58.00;;;;;;4994090;28;20038;-63
2021/10/02 05:39:03;;;;;;;7.35;0.90;;;21.70;58.00;;;;;;4997234;28;20068;-64
2021/10/02 05:41:29;;;;;;;10.27;0.90;;;21.70;57.90;;;;;;4995457;28;20042;-63
2021/10/02 05:43:54;;;;;;;6.75;1.20;;;21.70;58.00;;;;;;4998099;28;20133;-63
2021/10/02 05:46:20;;;;;;;7.45;0.77;;;21.70;58.70;;;;;;4998923;28;20459;-64
2021/10/02 05:48:46;;;;;;;7.55;0.80;;;21.70;58.00;;;;;;4997941;28;20815;-63
2021/10/02 05:51:12;;;;;;;7.13;1.20;;;21.70;58.00;;;;;;4999087;28;20044;-63
2021/10/02 05:53:38;;;;;;;8.15;0.98;;;21.70;57.90;;;;;;4999051;28;20177;-64
2021/10/02 05:56:03;;;;;;;9.93;1.70;;;21.70;58.20;;;;;;4998960;28;20069;-63
2021/10/02 05:58:29;;;;;;;11.60;1.58;;;21.70;58.30;;;;;;4996432;28;20803;-63
2021/10/02 06:00:55;;;;;;;9.77;1.00;;;21.70;58.40;;;;;;4997787;28;20050;-62
2021/10/02 06:03:20;;;;;;;13.93;1.00;;;21.70;58.40;;;;;;4996011;28;20042;-63
2021/10/02 06:05:46;;;;;;;12.15;1.17;;;21.70;58.40;;;;;;4995022;28;20049;-63
2021/10/02 06:08:12;;;;;;;7.53;1.10;;;21.70;58.50;;;;;;4996316;28;20046;-64
2021/10/02 06:10:39;;;;;;;8.25;1.30;;;21.70;58.60;;;;;;4996530;28;20042;-64
2021/10/02 06:13:06;;;;;;;7.93;1.02;;;21.70;58.70;;;;;;4997828;28;20050;-63
2021/10/02 06:15:32;;;;;;;4.65;0.85;;;21.70;58.70;;;;;;4996028;28;20057;-63
2021/10/02 06:17:57;;;;;;;6.60;1.02;;;21.70;58.80;;;;;;4997039;28;20093;-63
2021/10/02 06:20:24;;;;;;;6.38;1.05;;;21.70;58.70;;;;;;4997250;28;20042;-63
2021/10/02 06:22:51;;;;;;;8.63;1.45;;;21.70;58.90;;;;;;4997804;28;20500;-64
2021/10/02 06:25:17;;;;;;;8.50;1.23;;;21.70;58.80;;;;;;4996300;28;20038;-63
2021/10/02 06:27:42;;;;;;;10.00;1.20;;;21.70;58.80;;;;;;4996707;28;20466;-63
2021/10/02 06:30:09;;;;;;;12.32;1.70;;;21.70;58.90;;;;;;4995412;28;20046;-64
2021/10/02 06:32:35;;;;;;;11.52;1.10;;;21.70;59.00;;;;;;4994694;28;20439;-63
2021/10/02 06:35:00;;;;;;;8.32;1.05;;;21.70;59.10;;;;;;4996909;28;20057;-64
2021/10/02 06:37:26;;;;;;;6.20;1.00;;;21.70;59.00;;;;;;4998738;28;20065;-62
2021/10/02 06:39:52;;;;;;;6.65;1.00;;;21.70;59.10;;;;;;4996790;28;20038;-63
2021/10/02 06:42:17;;;;;;;6.68;1.13;;;21.60;58.90;;;;;;4997847;28;20492;-64
2021/10/02 06:44:43;;;;;;;8.38;1.20;;;21.70;59.10;;;;;;4997405;28;20125;-64
2021/10/02 06:47:09;;;;;;;6.43;0.90;;;21.70;59.20;;;;;;4998718;28;20049;-63
2021/10/02 06:49:34;;;;;;;14.45;1.13;;;21.70;59.20;;;;;;4998074;28;20066;-63
2021/10/02 06:52:00;;;;;;;6.22;0.90;;;21.70;59.20;;;;;;4999674;28;20086;-64
2021/10/02 06:54:26;;;;;;;5.57;0.90;;;21.70;59.00;;;;;;4996299;28;20049;-62
2021/10/02 06:56:51;;;;;;;12.98;1.17;;;21.70;58.90;;;;;;4998211;28;20560;-63
2021/10/02 06:59:17;;;;;;;17.35;1.98;;;21.70;58.70;;;;;;4997301;28;20038;-62
2021/10/02 07:01:43;;;;;;;22.20;2.10;;;21.60;58.70;;;;;;4996927;28;20034;-63
2021/10/02 07:04:09;;;;;;;26.20;1.60;;;21.60;58.80;;;;;;4997874;28;20088;-63
2021/10/02 07:06:35;;;;;;;22.75;2.05;;;21.60;58.70;;;;;;4998910;28;20049;-63
2021/10/02 07:09:01;;;;;;;17.00;2.00;;;21.60;59.10;;;;;;4993934;28;20049;-63
2021/10/02 07:11:27;;;;;;;12.38;1.17;;;21.70;58.80;;;;;;4995535;28;20157;-63
2021/10/02 07:13:53;;;;;;;13.20;1.55;;;21.70;58.70;;;;;;4994623;28;20130;-63
2021/10/02 07:16:21;;;;;;;12.40;1.50;;;21.70;58.90;;;;;;4998202;28;20038;-63
2021/10/02 07:18:46;;;;;;;10.63;1.50;;;21.70;58.80;;;;;;4997944;28;20033;-64
2021/10/02 07:21:12;;;;;;;10.13;1.52;;;21.70;59.50;;;;;;4997815;28;20037;-62
2021/10/02 07:23:38;;;;;;;13.85;1.55;;;21.70;58.80;;;;;;4993344;28;20411;-63
2021/10/02 07:26:06;;;;;;;14.02;1.60;;;21.70;58.90;;;;;;4995586;28;20057;-64
2021/10/02 07:28:32;;;;;;;11.70;1.55;;;21.70;59.00;;;;;;4998551;28;20045;-63
2021/10/02 07:30:58;;;;;;;8.45;1.20;;;21.70;58.90;;;;;;4996783;28;20050;-63
2021/10/02 07:33:23;;;;;;;20.30;2.85;;;21.60;58.80;;;;;;4996085;28;20069;-62
2021/10/02 07:35:49;;;;;;;17.13;3.53;;;21.70;59.30;;;;;;4995681;28;20133;-63
2021/10/02 07:38:14;;;;;;;26.45;3.75;;;21.70;59.10;;;;;;4996573;28;20038;-63
2021/10/02 07:40:40;;;;;;;20.38;3.95;;;21.70;59.00;;;;;;4997648;28;20034;-64
2021/10/02 07:43:06;;;;;;;45.75;8.45;;;21.70;59.10;;;;;;4997950;28;20412;-65
2021/10/02 07:45:33;;;;;;;48.20;9.13;;;21.70;58.20;;;;;;4998473;28;20605;-65
2021/10/02 07:48:01;;;;;;;39.65;8.00;;;21.70;58.30;;;;;;4996345;28;20050;-65
2021/10/02 07:50:26;;;;;;;24.23;8.02;;;21.70;58.30;;;;;;4978892;28;20495;-63
2021/10/02 07:52:55;;;;;;;35.45;7.70;;;21.80;58.70;;;;;;4997211;28;20049;-63
2021/10/02 07:55:21;;;;;;;44.50;8.10;;;21.80;58.70;;;;;;4997221;28;20069;-63
2021/10/02 07:57:47;;;;;;;29.85;7.05;;;21.80;58.70;;;;;;4995891;28;20117;-63
2021/10/02 08:00:18;;;;;;;21.63;6.85;;;21.80;58.70;;;;;;4995026;28;20057;-63
2021/10/02 08:02:50;;;;;;;21.77;6.55;;;21.80;58.70;;;;;;4996647;28;20038;-64
2021/10/02 08:05:16;;;;;;;29.85;6.88;;;21.70;58.60;;;;;;4995610;28;20038;-64
2021/10/02 08:07:45;;;;;;;22.70;5.63;;;21.70;58.70;;;;;;4996561;28;20045;-63
2021/10/02 08:10:12;;;;;;;29.05;5.65;;;21.70;58.70;;;;;;4994627;28;20103;-64
2021/10/02 08:12:39;;;;;;;24.10;5.15;;;21.70;58.90;;;;;;4996844;28;20045;-63
2021/10/02 08:15:08;;;;;;;15.77;5.25;;;21.70;58.90;;;;;;4995360;28;20125;-63
2021/10/02 08:17:35;;;;;;;16.13;4.90;;;21.70;58.90;;;;;;4994327;28;20129;-63
2021/10/02 08:20:08;;;;;;;26.02;5.53;;;21.70;59.10;;;;;;4997740;28;20033;-63
2021/10/02 08:22:40;;;;;;;20.52;5.00;;;21.70;59.60;;;;;;4996007;28;20179;-65
2021/10/02 08:25:07;;;;;;;19.63;4.63;;;21.70;59.30;;;;;;4996621;28;20076;-64
2021/10/02 08:27:33;;;;;;;19.45;4.82;;;21.60;59.20;;;;;;4997635;28;20499;-65
2021/10/02 08:30:00;;;;;;;19.20;5.65;;;21.60;59.50;;;;;;4996363;28;20099;-63
2021/10/02 08:32:27;;;;;;;17.98;4.80;;;21.60;59.20;;;;;;4993617;28;20057;-65
2021/10/02 08:34:52;;;;;;;15.68;4.50;;;21.60;59.40;;;;;;4993021;28;20933;-65
2021/10/02 08:37:18;;;;;;;20.88;4.32;;;21.60;59.30;;;;;;4995615;28;20046;-64
2021/10/02 08:39:44;;;;;;;12.77;4.20;;;21.60;59.50;;;;;;4996327;28;20053;-66
2021/10/02 08:42:09;;;;;;;20.02;4.40;;;21.60;59.40;;;;;;4996659;28;20042;-65
2021/10/02 08:44:36;;;;;;;17.40;4.80;;;21.60;59.50;;;;;;4993763;28;20111;-65
2021/10/02 08:47:02;;;;;;;19.58;4.28;;;21.70;59.70;;;;;;4998361;28;20427;-65
2021/10/02 08:49:30;;;;;;;14.00;4.13;;;21.60;59.60;;;;;;4995496;28;20415;-67
2021/10/02 08:51:57;;;;;;;11.30;3.95;;;21.60;59.60;;;;;;4995648;28;20499;-64
2021/10/02 08:54:24;;;;;;;19.63;5.30;;;21.60;59.80;;;;;;4993614;28;20434;-65
2021/10/02 08:56:51;;;;;;;24.13;5.75;;;21.70;60.00;;;;;;4993003;28;20043;-65
2021/10/02 08:59:20;;;;;;;23.42;5.57;;;21.80;60.30;;;;;;4995997;28;20046;-66
2021/10/02 09:01:46;;;;;;;26.98;5.88;;;22.00;60.30;;;;;;4993583;28;20160;-65
2021/10/02 09:04:12;;;;;;;27.20;5.90;;;22.10;60.20;;;;;;4995367;28;20765;-65
2021/10/02 09:06:38;;;;;;;38.83;6.25;;;22.20;60.20;;;;;;4994402;28;20038;-64
2021/10/02 09:09:06;;;;;;;24.83;3.83;;;22.20;60.20;;;;;;4996286;28;20041;-65
2021/10/02 09:11:32;;;;;;;26.63;4.80;;;22.20;59.90;;;;;;4997043;28;20045;-64
2021/10/02 09:13:58;;;;;;;27.30;4.80;;;22.30;60.00;;;;;;4997061;28;20049;-65
2021/10/02 09:16:24;;;;;;;26.00;5.40;;;22.40;59.70;;;;;;4995913;28;20053;-64
2021/10/02 09:18:50;;;;;;;31.90;5.45;;;22.40;59.80;;;;;;4998058;28;20439;-65
2021/10/02 09:21:16;;;;;;;35.45;5.78;;;22.40;60.00;;;;;;4999118;28;20046;-64
2021/10/02 09:23:44;;;;;;;30.25;4.90;;;22.30;59.90;;;;;;5000358;28;20042;-65
2021/10/02 09:26:10;;;;;;;22.30;4.82;;;22.30;60.00;;;;;;4998338;28;20403;-65
2021/10/02 09:28:48;;;;;;;42.10;4.78;;;22.20;60.00;;;;;;5001724;28;20038;-66
2021/10/02 09:31:18;;;;;;;21.48;4.32;;;22.20;60.10;;;;;;5001814;28;20038;-65
2021/10/02 09:33:46;;;;;;;27.60;4.43;;;22.10;60.10;;;;;;4999728;28;20434;-64
2021/10/02 09:36:23;;;;;;;23.13;4.90;;;22.10;60.00;;;;;;4996811;28;20042;-64
2021/10/02 09:38:50;;;;;;;38.25;5.07;;;22.10;60.10;;;;;;4999412;28;20562;-64
2021/10/02 09:41:16;;;;;;;20.23;4.20;;;22.00;60.20;;;;;;4999368;28;20045;-64
2021/10/02 09:43:54;;;;;;;20.67;4.45;;;21.90;60.20;;;;;;5002073;28;20035;-64
2021/10/02 09:46:32;;;;;;;18.45;4.10;;;21.90;60.20;;;;;;4996310;28;20129;-65
2021/10/02 09:48:58;;;;;;;23.05;4.70;;;21.80;60.20;;;;;;4999099;28;20042;-65
2021/10/02 09:51:41;;;;;;;26.00;4.55;;;21.80;60.30;;;;;;4998233;28;20050;-64
2021/10/02 09:54:08;;;;;;;26.92;5.80;;;21.80;60.20;;;;;;4995288;28;20046;-64
2021/10/02 09:56:33;;;;;;;36.65;5.88;;;21.80;60.10;;;;;;4996731;28;20034;-64
2021/10/02 09:58:59;;;;;;;31.40;5.07;;;21.90;60.10;;;;;;4998677;28;20073;-65
2021/10/02 10:01:26;;;;;;;27.08;5.07;;;21.90;60.20;;;;;;4996641;28;20042;-63
2021/10/02 10:03:53;;;;;;;24.50;4.72;;;21.80;60.20;;;;;;4997348;28;20054;-65
2021/10/02 10:06:27;;;;;;;29.30;4.95;;;21.80;60.10;;;;;;4999135;28;20076;-65
2021/10/02 10:09:09;;;;;;;22.67;4.47;;;21.80;60.10;;;;;;4997963;28;20049;-64
2021/10/02 10:11:52;;;;;;;23.20;4.05;;;21.90;60.10;;;;;;4995444;28;20108;-64
2021/10/02 10:14:25;;;;;;;23.60;4.22;;;21.90;60.10;;;;;;4996769;28;20141;-65
2021/10/02 10:16:52;;;;;;;21.63;4.38;;;21.90;60.10;;;;;;4999719;28;20086;-64
2021/10/02 10:19:26;;;;;;;22.48;4.32;;;21.90;60.10;;;;;;4996335;28;20046;-65
2021/10/02 10:22:20;;;;;;;25.55;4.40;;;21.90;60.10;;;;;;4996049;28;20044;-64
2021/10/02 10:24:57;;;;;;;19.85;4.15;;;21.80;60.10;;;;;;4995165;28;20038;-64
2021/10/02 10:27:46;;;;;;;21.45;4.00;;;21.80;60.10;;;;;;4995998;28;20042;-64
2021/10/02 10:30:13;;;;;;;16.10;3.92;;;21.90;60.10;;;;;;4997578;28;20112;-64
2021/10/02 10:33:06;;;;;;;25.00;4.03;;;21.80;60.10;;;;;;4995894;28;20813;-64
2021/10/02 10:35:38;;;;;;;20.75;4.00;;;21.80;60.10;;;;;;5009770;28;20045;-64
2021/10/02 10:38:06;;;;;;;21.95;3.83;;;21.80;60.10;;;;;;4997721;28;20038;-63
2021/10/02 10:40:32;;;;;;;16.15;3.70;;;21.80;60.00;;;;;;4996512;28;20042;-63
2021/10/02 10:42:58;;;;;;;13.38;3.45;;;21.80;60.00;;;;;;4996956;28;20046;-64
2021/10/02 10:45:25;;;;;;;15.27;3.63;;;21.80;60.00;;;;;;4997173;28;20038;-64
2021/10/02 10:47:52;;;;;;;17.00;4.03;;;21.80;60.00;;;;;;4996216;28;20073;-64
2021/10/02 10:50:18;;;;;;;14.88;4.40;;;21.80;60.00;;;;;;4995264;28;20515;-64
2021/10/02 10:52:46;;;;;;;11.13;3.55;;;21.80;60.00;;;;;;4999362;28;20506;-64
2021/10/02 10:55:16;;;;;;;14.48;4.15;;;21.80;60.00;;;;;;4997379;28;20046;-64
2021/10/02 10:57:45;;;;;;;11.93;3.35;;;21.80;60.00;;;;;;4987374;28;20053;-64
2021/10/02 11:00:16;;;;;;;16.95;4.15;;;21.80;60.00;;;;;;5011212;28;20042;-64
2021/10/02 11:02:47;;;;;;;14.63;3.60;;;21.80;60.00;;;;;;4994400;28;20038;-63
2021/10/02 11:05:35;;;;;;;12.68;3.75;;;21.80;60.00;;;;;;4995507;28;20066;-64
2021/10/02 11:08:11;;;;;;;22.65;4.03;;;21.80;60.00;;;;;;4997051;28;20512;-64
2021/10/02 11:10:44;;;;;;;18.30;4.15;;;21.80;60.00;;;;;;4993831;28;20042;-63
2021/10/02 11:13:12;;;;;;;11.63;3.65;;;21.80;60.00;;;;;;4996427;28;20068;-63
2021/10/02 11:15:38;;;;;;;14.55;3.83;;;21.80;60.00;;;;;;4995835;28;20069;-64
2021/10/02 11:18:04;;;;;;;19.27;4.65;;;21.80;60.00;;;;;;4994222;28;20542;-64
2021/10/02 11:20:33;;;;;;;14.40;4.10;;;21.80;60.00;;;;;;4995099;28;20049;-64
2021/10/02 11:23:30;;;;;;;15.65;4.20;;;21.80;60.00;;;;;;4997351;28;20483;-63
2021/10/02 11:26:26;;;;;;;18.65;3.85;;;21.80;60.00;;;;;;4997689;28;20137;-64
2021/10/02 11:28:58;;;;;;;12.30;3.70;;;21.80;60.00;;;;;;4993361;28;20038;-64
2021/10/02 11:31:25;;;;;;;19.98;3.90;;;21.80;60.00;;;;;;4984940;28;20072;-63
2021/10/02 11:33:58;;;;;;;13.20;3.75;;;21.80;60.00;;;;;;4991161;28;20042;-64
2021/10/02 11:36:33;;;;;;;13.63;4.65;;;21.80;60.00;;;;;;4978666;28;20054;-64
2021/10/02 11:39:25;;;;;;;13.30;4.03;;;21.80;60.00;;;;;;4976951;28;20053;-63
2021/10/02 11:41:57;;;;;;;14.60;4.47;;;21.80;60.00;;;;;;4974112;28;20054;-64
2021/10/02 11:44:32;;;;;;;15.95;4.78;;;21.80;60.00;;;;;;4974951;28;20043;-64
2021/10/02 11:47:36;;;;;;;19.00;4.10;;;21.80;60.00;;;;;;4974157;28;20062;-64
2021/10/02 11:50:11;;;;;;;11.00;3.85;;;21.80;60.10;;;;;;4976173;28;20074;-63
2021/10/02 11:52:57;;;;;;;16.50;3.88;;;21.80;60.10;;;;;;4972615;28;20699;-64
2021/10/02 11:55:35;;;;;;;12.75;3.83;;;21.80;60.20;;;;;;4971466;28;20033;-64
2021/10/02 11:58:07;;;;;;;17.02;4.00;;;21.80;60.10;;;;;;4974102;28;20105;-63
2021/10/02 12:00:48;;;;;;;11.38;3.60;;;21.80;60.10;;;;;;4976779;28;20062;-64
2021/10/02 12:03:22;;;;;;;13.00;3.58;;;21.80;60.10;;;;;;4974881;28;20089;-63
2021/10/02 12:05:49;;;;;;;17.42;3.92;;;21.80;60.10;;;;;;4974967;28;20117;-63
2021/10/02 12:08:16;;;;;;;11.25;3.72;;;21.80;60.10;;;;;;4977382;28;20039;-64
2021/10/02 12:10:51;;;;;;;18.15;3.85;;;21.80;60.10;;;;;;4981662;28;20089;-63
2021/10/02 12:13:27;;;;;;;18.05;4.10;;;21.80;60.10;;;;;;4974626;28;20042;-63
2021/10/02 12:16:07;;;;;;;13.00;3.58;;;21.70;60.00;;;;;;4973950;28;20569;-63
2021/10/02 12:18:51;;;;;;;11.00;3.70;;;21.70;60.00;;;;;;4974402;28;20045;-64
2021/10/02 12:21:23;;;;;;;10.50;3.43;;;21.80;60.00;;;;;;4977879;28;20034;-64
2021/10/02 12:23:54;;;;;;;11.90;3.08;;;21.70;60.00;;;;;;4975841;28;20499;-63
2021/10/02 12:26:20;;;;;;;10.68;2.75;;;21.70;59.80;;;;;;4975527;28;20049;-63
2021/10/02 12:28:46;;;;;;;13.80;2.80;;;21.70;59.70;;;;;;4976657;28;20104;-63
2021/10/02 12:31:12;;;;;;;12.05;2.70;;;21.70;59.50;;;;;;4975920;28;20038;-64
2021/10/02 12:33:37;;;;;;;13.65;2.47;;;21.70;59.30;;;;;;4975364;28;20042;-64
2021/10/02 12:36:03;;;;;;;24.02;3.08;;;21.70;59.40;;;;;;4974476;28;20043;-65
2021/10/02 12:38:45;;;;;;;15.60;3.28;;;21.70;59.80;;;;;;4977732;28;20027;-66
2021/10/02 12:41:11;;;;;;;20.13;3.15;;;21.70;60.00;;;;;;4973734;28;20050;-63
2021/10/02 12:43:37;;;;;;;26.90;3.03;;;21.70;60.10;;;;;;4975520;28;20030;-64
2021/10/02 12:46:15;;;;;;;12.90;3.05;;;21.70;60.00;;;;;;4974248;28;20055;-64
2021/10/02 12:48:41;;;;;;;16.80;3.60;;;21.70;60.10;;;;;;4976078;28;20645;-64
2021/10/02 12:51:09;;;;;;;31.30;4.10;;;21.70;60.10;;;;;;4973633;28;20035;-64
2021/10/02 12:53:38;;;;;;;16.17;3.20;;;21.70;60.10;;;;;;4979320;28;20089;-63
2021/10/02 12:56:15;;;;;;;19.88;3.33;;;21.70;60.10;;;;;;4978787;28;20424;-63
2021/10/02 12:58:40;;;;;;;22.88;2.97;;;21.70;60.10;;;;;;4978723;28;20038;-64
2021/10/02 13:01:06;;;;;;;22.65;3.40;;;21.70;60.10;;;;;;4980005;28;20034;-64
2021/10/02 13:03:38;;;;;;;14.85;2.50;;;21.70;60.00;;;;;;4980197;28;20927;-64
2021/10/02 13:06:04;;;;;;;17.30;2.90;;;21.70;60.00;;;;;;4977974;28;20472;-64
2021/10/02 13:08:30;;;;;;;12.02;2.40;;;21.70;60.00;;;;;;4979561;28;20130;-64
2021/10/02 13:10:55;;;;;;;18.40;2.17;;;21.70;59.80;;;;;;4978371;28;20040;-63
2021/10/02 13:13:21;;;;;;;8.48;2.30;;;21.70;59.70;;;;;;4977246;28;20035;-64
2021/10/02 13:15:56;;;;;;;11.65;1.98;;;21.70;59.50;;;;;;4978039;28;20452;-63
2021/10/02 13:18:27;;;;;;;9.38;2.03;;;21.70;59.30;;;;;;4978156;28;20399;-64
2021/10/02 13:20:58;;;;;;;16.60;2.33;;;21.70;59.20;;;;;;4976502;28;20035;-64
2021/10/02 13:23:39;;;;;;;8.88;1.70;;;21.70;59.10;;;;;;4978623;28;20038;-63
2021/10/02 13:26:12;;;;;;;6.13;1.45;;;21.60;58.80;;;;;;4980095;28;20050;-63
2021/10/02 13:29:08;;;;;;;9.38;1.92;;;21.70;59.00;;;;;;4979775;28;20046;-63
2021/10/02 13:31:34;;;;;;;9.63;2.03;;;21.70;59.00;;;;;;4976934;28;20469;-64
2021/10/02 13:34:06;;;;;;;11.35;1.90;;;21.60;59.00;;;;;;4980058;28;20500;-63
2021/10/02 13:36:35;;;;;;;15.15;2.10;;;21.70;59.20;;;;;;4998613;28;20079;-64
2021/10/02 13:39:15;;;;;;;9.80;1.65;;;21.70;59.30;;;;;;4998698;28;20172;-63
2021/10/02 13:41:46;;;;;;;10.70;1.77;;;21.70;59.40;;;;;;4997621;28;20099;-64
2021/10/02 13:44:23;;;;;;;9.60;1.90;;;21.70;59.40;;;;;;4998190;28;20500;-64
2021/10/02 13:46:50;;;;;;;9.15;1.73;;;21.70;59.50;;;;;;4996138;28;20046;-62